Time;durP1;ratioP1;P1;durP2;ratioP2;P2;SDS_P1;SDS_P2;PMS_P1;PMS_P2;Temp;Humidity;BMP_temperature;BMP_pressure;BME280_temperature;BME280_humidity;BME280_pressure;Samples;Min_cycle;Max_cycle;Signal;HPM_P1;HPM_P2
2022/04/10 00:01:57;;;;;;;17.00;6.30;;;;;;;;;;4734870;28;9999962;-68
2022/04/10 00:04:23;;;;;;;11.70;4.93;;;;;;;;;;5091440;28;20023;-68
2022/04/10 00:06:49;;;;;;;11.23;4.60;;;;;;;;;;5087537;28;20066;-68
2022/04/10 00:09:15;;;;;;;8.73;4.70;;;;;;;;;;5089788;28;20027;-68
2022/04/10 00:11:41;;;;;;;6.43;4.45;;;;;;;;;;5091320;28;20049;-68
2022/04/10 00:14:07;;;;;;;8.45;4.55;;;;;;;;;;5082036;28;20035;-68
2022/04/10 00:16:33;;;;;;;6.22;4.18;;;;;;;;;;5087896;28;20275;-68
2022/04/10 00:19:04;;;;;;;7.85;4.00;;;;;;;;;;5092608;28;20426;-69
2022/04/10 00:21:30;;;;;;;5.55;4.07;;;;;;;;;;5083468;28;20056;-68
2022/04/10 00:23:56;;;;;;;7.10;4.18;;;;;;;;;;5092638;28;20367;-68
2022/04/10 00:26:22;;;;;;;9.73;4.80;;;;;;;;;;5091760;28;20089;-68
2022/04/10 00:28:48;;;;;;;7.05;3.88;;;;;;;;;;5088312;28;20044;-68
2022/04/10 00:31:14;;;;;;;6.97;4.53;;;;;;;;;;5090966;28;20032;-67
2022/04/10 00:33:40;;;;;;;8.93;4.55;;;;;;;;;;5094306;28;20049;-68
2022/04/10 00:36:06;;;;;;;8.57;4.80;;;;;;;;;;5089204;28;20032;-68
2022/04/10 00:38:32;;;;;;;8.65;4.38;;;;;;;;;;5083538;28;20047;-68
2022/04/10 00:40:58;;;;;;;12.85;4.72;;;;;;;;;;5092977;28;20032;-68
2022/04/10 00:43:32;;;;;;;11.95;5.10;;;;;;;;;;5090716;28;20028;-68
2022/04/10 00:45:59;;;;;;;8.30;4.30;;;;;;;;;;5093646;28;20131;-68
2022/04/10 00:48:25;;;;;;;8.25;4.82;;;;;;;;;;5102317;28;20043;-68
2022/04/10 00:53:37;;;;;;;8.07;4.93;;;;;;;;;;5087515;28;20101;-68
2022/04/10 00:56:04;;;;;;;7.82;4.95;;;;;;;;;;5093298;28;20043;-68
2022/04/10 00:58:31;;;;;;;8.85;4.80;;;;;;;;;;5096117;28;20063;-68
2022/04/10 01:00:56;;;;;;;7.45;4.95;;;;;;;;;;5097351;28;20139;-68
2022/04/10 01:03:23;;;;;;;11.73;5.20;;;;;;;;;;5089972;28;20123;-68
2022/04/10 01:05:49;;;;;;;18.95;5.82;;;;;;;;;;5095871;28;20119;-68
2022/04/10 01:08:15;;;;;;;9.45;4.90;;;;;;;;;;5089999;28;20047;-68
2022/04/10 01:10:44;;;;;;;9.73;5.47;;;;;;;;;;5098109;28;20035;-68
2022/04/10 01:13:11;;;;;;;8.90;5.05;;;;;;;;;;5095141;28;20076;-68
2022/04/10 01:15:38;;;;;;;8.73;5.57;;;;;;;;;;5095877;28;20506;-68
2022/04/10 01:18:06;;;;;;;8.45;5.35;;;;;;;;;;5098236;28;20043;-68
2022/04/10 01:20:32;;;;;;;11.35;5.20;;;;;;;;;;5101000;28;20412;-68
2022/04/10 01:22:59;;;;;;;10.38;5.30;;;;;;;;;;5097776;28;20032;-68
2022/04/10 01:25:25;;;;;;;10.73;5.85;;;;;;;;;;5096349;28;20024;-68
2022/04/10 01:27:51;;;;;;;13.68;6.38;;;;;;;;;;5104629;28;20032;-68
2022/04/10 01:30:17;;;;;;;7.60;5.10;;;;;;;;;;5095271;28;20052;-68
2022/04/10 01:32:43;;;;;;;7.78;5.30;;;;;;;;;;5094820;28;20480;-68
2022/04/10 01:35:09;;;;;;;9.32;5.80;;;;;;;;;;5090192;28;20485;-68
2022/04/10 01:37:36;;;;;;;10.85;5.68;;;;;;;;;;5103868;28;20077;-68
2022/04/10 01:40:03;;;;;;;9.88;5.82;;;;;;;;;;5099558;28;20480;-68
2022/04/10 01:42:29;;;;;;;10.20;5.38;;;;;;;;;;5093230;28;20478;-68
2022/04/10 01:44:55;;;;;;;11.13;6.05;;;;;;;;;;5087641;28;20102;-68
2022/04/10 01:47:21;;;;;;;8.27;5.55;;;;;;;;;;5089718;28;20464;-68
2022/04/10 01:49:47;;;;;;;11.95;5.93;;;;;;;;;;5091762;28;20055;-68
2022/04/10 01:52:13;;;;;;;8.60;5.70;;;;;;;;;;5090058;28;20116;-67
2022/04/10 01:54:39;;;;;;;7.88;5.28;;;;;;;;;;5084755;28;20032;-68
2022/04/10 01:57:06;;;;;;;8.43;5.18;;;;;;;;;;5084490;28;20459;-68
2022/04/10 01:59:32;;;;;;;7.95;5.53;;;;;;;;;;5090123;28;20691;-68
2022/04/10 02:01:58;;;;;;;8.88;4.88;;;;;;;;;;5093678;28;20456;-68
2022/04/10 02:04:23;;;;;;;7.88;5.20;;;;;;;;;;5088796;28;20085;-68
2022/04/10 02:06:49;;;;;;;7.25;4.95;;;;;;;;;;5091022;28;20459;-68
2022/04/10 02:09:15;;;;;;;10.93;6.30;;;;;;;;;;5093278;28;20032;-68
2022/04/10 02:11:42;;;;;;;10.20;6.15;;;;;;;;;;5088397;28;20465;-68
2022/04/10 02:14:07;;;;;;;16.20;6.55;;;;;;;;;;5090968;28;20245;-68
2022/04/10 02:16:33;;;;;;;12.77;6.50;;;;;;;;;;5090647;28;20139;-68
2022/04/10 02:18:59;;;;;;;17.02;6.53;;;;;;;;;;5094210;28;20032;-68
2022/04/10 02:21:25;;;;;;;12.48;6.90;;;;;;;;;;5086139;28;20027;-68
2022/04/10 02:23:51;;;;;;;10.10;6.25;;;;;;;;;;5094044;28;20050;-68
2022/04/10 02:26:17;;;;;;;12.77;6.25;;;;;;;;;;5093527;28;20111;-68
2022/04/10 02:28:43;;;;;;;9.85;5.95;;;;;;;;;;5093709;28;20043;-68
2022/04/10 02:31:09;;;;;;;9.63;6.55;;;;;;;;;;5094076;28;20042;-68
2022/04/10 02:33:37;;;;;;;12.07;6.72;;;;;;;;;;5087007;28;20138;-68
2022/04/10 02:36:03;;;;;;;11.00;6.10;;;;;;;;;;5083552;28;20162;-68
2022/04/10 02:38:29;;;;;;;9.57;6.43;;;;;;;;;;5089700;28;20032;-68
2022/04/10 02:40:55;;;;;;;11.63;6.47;;;;;;;;;;5087548;28;20023;-68
2022/04/10 02:43:21;;;;;;;10.82;6.30;;;;;;;;;;5088497;28;20586;-68
2022/04/10 02:45:47;;;;;;;10.48;6.10;;;;;;;;;;5083999;28;20027;-68
2022/04/10 02:48:13;;;;;;;9.02;5.90;;;;;;;;;;5096160;28;20111;-68
2022/04/10 02:50:40;;;;;;;9.57;6.45;;;;;;;;;;5097513;28;20043;-68
2022/04/10 02:53:06;;;;;;;11.25;6.15;;;;;;;;;;5097268;28;20036;-68
2022/04/10 02:55:33;;;;;;;11.48;6.13;;;;;;;;;;5084254;28;20028;-68
2022/04/10 02:57:59;;;;;;;11.77;6.35;;;;;;;;;;5088267;28;20141;-67
2022/04/10 03:00:25;;;;;;;9.55;6.10;;;;;;;;;;5094160;28;20024;-68
2022/04/10 03:02:52;;;;;;;10.95;6.00;;;;;;;;;;5087920;28;20148;-68
2022/04/10 03:05:18;;;;;;;14.75;6.47;;;;;;;;;;5088758;28;20047;-68
2022/04/10 03:07:44;;;;;;;10.85;6.25;;;;;;;;;;5085862;28;20027;-68
2022/04/10 03:10:10;;;;;;;9.25;5.90;;;;;;;;;;5087656;28;20032;-68
2022/04/10 03:12:36;;;;;;;9.07;5.80;;;;;;;;;;5087548;28;20039;-68
2022/04/10 03:15:02;;;;;;;10.10;5.70;;;;;;;;;;5087533;28;20042;-68
2022/04/10 03:17:28;;;;;;;12.20;6.38;;;;;;;;;;5087665;28;20023;-68
2022/04/10 03:19:54;;;;;;;12.02;6.55;;;;;;;;;;5094904;28;20020;-68
2022/04/10 03:22:20;;;;;;;14.43;7.30;;;;;;;;;;5085219;28;20032;-68
2022/04/10 03:24:46;;;;;;;9.10;6.10;;;;;;;;;;5084207;28;20043;-68
2022/04/10 03:27:12;;;;;;;12.95;6.75;;;;;;;;;;5083613;28;20517;-67
2022/04/10 03:29:38;;;;;;;13.85;7.10;;;;;;;;;;5101864;28;20043;-68
2022/04/10 03:32:04;;;;;;;13.73;7.10;;;;;;;;;;5089619;28;20095;-68
2022/04/10 03:34:30;;;;;;;13.50;7.28;;;;;;;;;;5090652;28;20024;-68
2022/04/10 03:36:56;;;;;;;11.63;6.25;;;;;;;;;;5087514;28;20187;-68
2022/04/10 03:39:22;;;;;;;14.38;6.15;;;;;;;;;;5097269;28;20426;-68
2022/04/10 03:41:48;;;;;;;11.43;6.43;;;;;;;;;;5093852;28;20077;-68
2022/04/10 03:44:14;;;;;;;12.65;6.88;;;;;;;;;;5086151;28;20507;-68
2022/04/10 03:46:40;;;;;;;12.73;7.63;;;;;;;;;;5102897;28;20031;-68
2022/04/10 03:49:07;;;;;;;12.00;6.50;;;;;;;;;;5091057;28;20075;-68
2022/04/10 03:51:33;;;;;;;11.43;6.50;;;;;;;;;;5088677;28;20039;-68
2022/04/10 03:53:59;;;;;;;10.75;6.38;;;;;;;;;;5086486;28;20054;-68
2022/04/10 03:56:25;;;;;;;13.68;6.75;;;;;;;;;;5087992;28;20111;-68
2022/04/10 03:58:51;;;;;;;15.63;7.10;;;;;;;;;;5087266;28;20043;-68
2022/04/10 04:01:17;;;;;;;16.40;7.07;;;;;;;;;;5090674;28;20032;-68
2022/04/10 04:03:43;;;;;;;17.98;7.13;;;;;;;;;;5087651;28;20114;-68
2022/04/10 04:06:09;;;;;;;17.17;7.70;;;;;;;;;;5086469;28;20472;-68
2022/04/10 04:08:35;;;;;;;19.08;7.97;;;;;;;;;;5091090;28;20039;-69
2022/04/10 04:11:01;;;;;;;15.70;8.00;;;;;;;;;;5091873;28;20032;-68
2022/04/10 04:13:27;;;;;;;10.63;7.47;;;;;;;;;;5098183;28;20507;-68
2022/04/10 04:15:53;;;;;;;14.30;7.47;;;;;;;;;;5096617;28;20093;-68
2022/04/10 04:18:19;;;;;;;15.00;7.72;;;;;;;;;;5097359;28;20435;-68
2022/04/10 04:20:45;;;;;;;15.43;7.75;;;;;;;;;;5091215;28;20080;-68
2022/04/10 04:23:11;;;;;;;16.00;7.45;;;;;;;;;;5090046;28;20047;-68
2022/04/10 04:25:37;;;;;;;18.65;8.30;;;;;;;;;;5084970;28;20157;-68
2022/04/10 04:28:03;;;;;;;19.23;9.00;;;;;;;;;;5088400;28;20052;-68
2022/04/10 04:30:29;;;;;;;17.08;8.15;;;;;;;;;;5093013;28;20059;-68
2022/04/10 04:32:56;;;;;;;17.88;8.02;;;;;;;;;;5087686;28;20051;-68
2022/04/10 04:35:23;;;;;;;16.33;7.97;;;;;;;;;;5085354;28;20043;-68
2022/04/10 04:37:49;;;;;;;13.48;8.18;;;;;;;;;;5087509;28;20027;-68
2022/04/10 04:40:15;;;;;;;12.07;7.82;;;;;;;;;;5086366;28;20174;-68
2022/04/10 04:42:42;;;;;;;14.77;8.43;;;;;;;;;;5087383;28;20047;-68
2022/04/10 04:45:09;;;;;;;17.77;8.25;;;;;;;;;;5086668;28;20046;-68
2022/04/10 04:47:36;;;;;;;15.32;7.82;;;;;;;;;;5088402;28;20566;-68
2022/04/10 04:50:02;;;;;;;10.68;7.10;;;;;;;;;;5092999;28;20067;-68
2022/04/10 04:52:28;;;;;;;14.98;7.78;;;;;;;;;;5087461;28;20047;-68
2022/04/10 04:54:54;;;;;;;14.77;7.65;;;;;;;;;;5096468;28;20028;-68
2022/04/10 04:57:20;;;;;;;14.30;7.53;;;;;;;;;;5096289;28;20024;-68
2022/04/10 04:59:46;;;;;;;18.27;7.93;;;;;;;;;;5089410;28;20369;-68
2022/04/10 05:02:12;;;;;;;12.30;7.15;;;;;;;;;;5095761;28;20047;-68
2022/04/10 05:04:38;;;;;;;18.33;7.93;;;;;;;;;;5088389;28;20055;-68
2022/04/10 05:07:04;;;;;;;18.92;8.55;;;;;;;;;;5095415;28;20038;-68
2022/04/10 05:09:30;;;;;;;19.77;8.85;;;;;;;;;;5087777;28;20024;-68
2022/04/10 05:11:56;;;;;;;16.77;8.45;;;;;;;;;;5084087;28;20123;-68
2022/04/10 05:14:22;;;;;;;13.48;7.78;;;;;;;;;;5085502;28;20047;-68
2022/04/10 05:16:47;;;;;;;21.00;10.32;;;;;;;;;;5098527;28;20463;-69
2022/04/10 05:19:14;;;;;;;18.30;9.35;;;;;;;;;;5096432;28;20122;-69
2022/04/10 05:21:40;;;;;;;16.27;8.80;;;;;;;;;;5093565;28;20344;-68
2022/04/10 05:24:06;;;;;;;16.88;8.93;;;;;;;;;;5082885;28;20093;-68
2022/04/10 05:26:32;;;;;;;17.27;9.20;;;;;;;;;;5089703;28;20024;-68
2022/04/10 05:28:58;;;;;;;20.02;9.38;;;;;;;;;;5090133;28;20130;-68
2022/04/10 05:31:24;;;;;;;15.52;8.30;;;;;;;;;;5089969;28;20110;-69
2022/04/10 05:33:51;;;;;;;15.82;8.43;;;;;;;;;;5085312;28;20031;-68
2022/04/10 05:36:17;;;;;;;16.60;8.38;;;;;;;;;;5094144;28;20036;-68
2022/04/10 05:38:45;;;;;;;14.95;7.70;;;;;;;;;;5099876;28;20072;-68
2022/04/10 05:41:12;;;;;;;16.25;7.40;;;;;;;;;;5089606;28;20031;-68
2022/04/10 05:43:38;;;;;;;15.25;7.70;;;;;;;;;;5096024;28;20058;-68
2022/04/10 05:46:04;;;;;;;12.50;7.10;;;;;;;;;;5104779;28;20027;-69
2022/04/10 05:48:31;;;;;;;14.30;7.57;;;;;;;;;;5088086;28;20475;-68
2022/04/10 05:50:57;;;;;;;14.27;7.53;;;;;;;;;;5089156;28;20047;-68
2022/04/10 05:53:26;;;;;;;14.32;7.85;;;;;;;;;;5088809;28;20537;-68
2022/04/10 05:55:52;;;;;;;14.65;7.68;;;;;;;;;;5090381;28;20032;-68
2022/04/10 05:58:18;;;;;;;17.45;7.80;;;;;;;;;;5095336;28;20047;-68
2022/04/10 06:00:44;;;;;;;15.13;8.30;;;;;;;;;;5098209;28;20023;-68
2022/04/10 06:03:10;;;;;;;17.52;8.27;;;;;;;;;;5089639;28;20024;-68
2022/04/10 06:05:36;;;;;;;16.38;7.40;;;;;;;;;;5083815;28;20024;-68
2022/04/10 06:08:02;;;;;;;14.27;6.90;;;;;;;;;;5094730;28;20038;-68
2022/04/10 06:10:28;;;;;;;13.00;6.40;;;;;;;;;;5102000;28;20032;-68
2022/04/10 06:12:54;;;;;;;16.42;6.90;;;;;;;;;;5096449;28;20206;-68
2022/04/10 06:15:21;;;;;;;15.27;6.82;;;;;;;;;;5089578;28;20357;-68
2022/04/10 06:17:47;;;;;;;12.63;6.60;;;;;;;;;;5087503;28;20039;-68
2022/04/10 06:20:13;;;;;;;12.70;6.72;;;;;;;;;;5099600;28;20024;-69
2022/04/10 06:22:39;;;;;;;14.07;7.40;;;;;;;;;;5089479;28;20128;-68
2022/04/10 06:25:06;;;;;;;12.88;7.68;;;;;;;;;;5096870;28;20039;-68
2022/04/10 06:27:32;;;;;;;13.80;8.23;;;;;;;;;;5086377;28;20031;-69
2022/04/10 06:29:58;;;;;;;15.90;7.32;;;;;;;;;;5094356;28;20193;-69
2022/04/10 06:32:24;;;;;;;13.25;7.30;;;;;;;;;;5097335;28;20121;-69
2022/04/10 06:34:50;;;;;;;14.48;7.60;;;;;;;;;;5092563;28;20474;-69
2022/04/10 06:37:16;;;;;;;19.30;13.57;;;;;;;;;;5095791;28;20104;-68
2022/04/10 06:39:42;;;;;;;15.15;12.07;;;;;;;;;;5089650;28;20028;-68
2022/04/10 06:42:08;;;;;;;18.13;9.15;;;;;;;;;;5088892;28;20036;-68
2022/04/10 06:44:34;;;;;;;16.30;10.45;;;;;;;;;;5092426;28;20040;-68
2022/04/10 06:47:01;;;;;;;12.23;8.93;;;;;;;;;;5086476;28;20529;-68
2022/04/10 06:49:27;;;;;;;16.30;9.57;;;;;;;;;;5092062;28;20617;-68
2022/04/10 06:51:53;;;;;;;24.35;13.50;;;;;;;;;;5092942;28;20030;-68
2022/04/10 06:54:19;;;;;;;27.20;17.98;;;;;;;;;;5088830;28;20028;-68
2022/04/10 06:56:45;;;;;;;22.67;15.93;;;;;;;;;;5091702;28;20063;-68
2022/04/10 06:59:11;;;;;;;12.90;7.35;;;;;;;;;;5093156;28;20402;-68
2022/04/10 07:01:37;;;;;;;12.63;6.05;;;;;;;;;;5087087;28;20060;-68
2022/04/10 07:04:06;;;;;;;13.52;6.10;;;;;;;;;;4836127;28;10000416;-68
2022/04/10 07:06:32;;;;;;;13.18;5.60;;;;;;;;;;5075303;28;20695;-68
2022/04/10 07:08:58;;;;;;;10.68;5.38;;;;;;;;;;5090045;28;20122;-69
2022/04/10 07:11:24;;;;;;;13.18;5.20;;;;;;;;;;5081950;28;20030;-68
2022/04/10 07:13:50;;;;;;;13.85;4.47;;;;;;;;;;5079275;28;20031;-68
2022/04/10 07:16:16;;;;;;;9.82;4.18;;;;;;;;;;5085623;28;20034;-68
2022/04/10 07:18:42;;;;;;;9.65;3.10;;;;;;;;;;5093022;28;20396;-69
2022/04/10 07:21:08;;;;;;;11.85;3.92;;;;;;;;;;5096566;28;20028;-69
2022/04/10 07:23:46;;;;;;;9.95;3.45;;;;;;;;;;5090369;28;20039;-68
2022/04/10 07:26:15;;;;;;;14.25;4.20;;;;;;;;;;5085520;28;20546;-69
2022/04/10 07:28:41;;;;;;;14.65;6.00;;;;;;;;;;5092972;28;20035;-69
2022/04/10 07:31:08;;;;;;;18.23;5.25;;;;;;;;;;5087873;28;20085;-69
2022/04/10 07:33:34;;;;;;;17.83;4.20;;;;;;;;;;5087334;28;20057;-68
2022/04/10 07:36:00;;;;;;;10.43;3.78;;;;;;;;;;5086968;28;20031;-69
2022/04/10 07:38:26;;;;;;;16.05;3.78;;;;;;;;;;5092309;28;20020;-69
2022/04/10 07:40:52;;;;;;;10.20;2.90;;;;;;;;;;5087631;28;20369;-69
2022/04/10 07:43:18;;;;;;;10.15;2.50;;;;;;;;;;5088201;28;20020;-68
2022/04/10 07:48:29;;;;;;;9.38;1.85;;;;;;;;;;5089829;28;20089;-68
2022/04/10 07:50:58;;;;;;;10.73;2.30;;;;;;;;;;5091249;28;20120;-69
2022/04/10 07:53:25;;;;;;;11.07;1.70;;;;;;;;;;5090018;28;20027;-69
2022/04/10 07:55:52;;;;;;;7.35;1.75;;;;;;;;;;5089622;28;20030;-68
2022/04/10 07:58:18;;;;;;;9.32;1.63;;;;;;;;;;5085943;28;20020;-68
2022/04/10 08:00:43;;;;;;;9.15;2.17;;;;;;;;;;5091549;28;20554;-69
2022/04/10 08:03:10;;;;;;;9.73;1.88;;;;;;;;;;5084787;28;20051;-68
2022/04/10 08:05:35;;;;;;;9.85;2.00;;;;;;;;;;5088052;28;20123;-69
2022/04/10 08:08:02;;;;;;;6.00;2.20;;;;;;;;;;5087895;28;20470;-67
2022/04/10 08:10:29;;;;;;;6.68;1.88;;;;;;;;;;5082499;28;20026;-67
2022/04/10 08:12:55;;;;;;;9.00;2.58;;;;;;;;;;5082234;28;20119;-67
2022/04/10 08:15:21;;;;;;;12.00;2.42;;;;;;;;;;5086364;28;20078;-68
2022/04/10 08:17:47;;;;;;;10.40;2.25;;;;;;;;;;5086457;28;20028;-68
2022/04/10 08:20:13;;;;;;;9.05;2.20;;;;;;;;;;5084771;28;20021;-67
2022/04/10 08:22:39;;;;;;;8.93;2.25;;;;;;;;;;5086231;28;20028;-68
2022/04/10 08:25:10;;;;;;;8.13;2.63;;;;;;;;;;5094274;28;20036;-67
2022/04/10 08:27:36;;;;;;;14.75;4.60;;;;;;;;;;5092222;28;20027;-68
2022/04/10 08:30:10;;;;;;;10.25;2.25;;;;;;;;;;5085028;28;20044;-67
2022/04/10 08:32:36;;;;;;;9.13;1.90;;;;;;;;;;5092938;28;20524;-69
2022/04/10 08:35:03;;;;;;;13.35;2.60;;;;;;;;;;5083439;28;20112;-69
2022/04/10 08:37:29;;;;;;;8.52;1.90;;;;;;;;;;5084844;28;20039;-67
2022/04/10 08:39:55;;;;;;;6.93;1.20;;;;;;;;;;5082260;28;20236;-67
2022/04/10 08:42:21;;;;;;;5.13;1.33;;;;;;;;;;5094019;28;20729;-68
2022/04/10 08:44:47;;;;;;;9.48;2.30;;;;;;;;;;5087387;28;20063;-67
2022/04/10 08:47:15;;;;;;;7.95;2.08;;;;;;;;;;5086917;28;20035;-68
2022/04/10 08:49:41;;;;;;;6.93;2.05;;;;;;;;;;5099475;28;20487;-68
2022/04/10 08:52:07;;;;;;;9.05;2.00;;;;;;;;;;5084525;28;20496;-68
2022/04/10 08:54:35;;;;;;;9.95;2.50;;;;;;;;;;5086491;28;20063;-68
2022/04/10 08:57:03;;;;;;;10.75;1.70;;;;;;;;;;5082477;28;20032;-68
2022/04/10 08:59:29;;;;;;;10.55;2.53;;;;;;;;;;5094491;28;20024;-68
2022/04/10 09:01:56;;;;;;;11.13;2.80;;;;;;;;;;5083481;28;20394;-68
2022/04/10 09:04:23;;;;;;;13.30;3.30;;;;;;;;;;5087610;28;20522;-67
2022/04/10 09:07:03;;;;;;;7.07;2.20;;;;;;;;;;5097131;28;20142;-68
2022/04/10 09:09:29;;;;;;;4.60;1.50;;;;;;;;;;5088742;28;20504;-68
2022/04/10 09:11:56;;;;;;;8.48;1.60;;;;;;;;;;5089817;28;20035;-68
2022/04/10 09:14:22;;;;;;;5.63;1.70;;;;;;;;;;5092566;28;20027;-67
2022/04/10 09:17:08;;;;;;;6.32;1.40;;;;;;;;;;5088259;28;20511;-67
2022/04/10 09:19:38;;;;;;;6.18;1.80;;;;;;;;;;5094153;28;20052;-67
2022/04/10 09:22:23;;;;;;;5.18;1.60;;;;;;;;;;5091936;28;20103;-68
2022/04/10 09:25:07;;;;;;;10.70;2.13;;;;;;;;;;5091534;28;20036;-68
2022/04/10 09:27:34;;;;;;;8.82;1.85;;;;;;;;;;5087630;28;20035;-68
2022/04/10 09:30:00;;;;;;;6.25;2.10;;;;;;;;;;5093510;28;20044;-67
2022/04/10 09:32:45;;;;;;;7.03;1.48;;;;;;;;;;5095261;28;20043;-67
2022/04/10 09:35:14;;;;;;;5.10;1.50;;;;;;;;;;5083409;28;20594;-68
2022/04/10 09:37:50;;;;;;;8.38;1.70;;;;;;;;;;5091166;28;20032;-69
2022/04/10 09:40:25;;;;;;;8.45;2.00;;;;;;;;;;5087360;28;20024;-69
2022/04/10 09:42:57;;;;;;;9.40;2.15;;;;;;;;;;5087468;28;20027;-69
2022/04/10 09:45:27;;;;;;;11.30;2.13;;;;;;;;;;5089923;28;20369;-69
2022/04/10 09:47:53;;;;;;;7.55;1.92;;;;;;;;;;5090756;28;20085;-69
2022/04/10 09:50:19;;;;;;;8.88;3.88;;;;;;;;;;5102114;28;20036;-69
2022/04/10 09:52:45;;;;;;;6.10;2.60;;;;;;;;;;5088401;28;20441;-69
2022/04/10 09:55:31;;;;;;;7.60;2.35;;;;;;;;;;5085927;28;20081;-68
2022/04/10 09:58:03;;;;;;;8.18;2.35;;;;;;;;;;5092697;28;20042;-68
2022/04/10 10:00:30;;;;;;;5.28;2.13;;;;;;;;;;5086299;28;20016;-69
2022/04/10 10:02:56;;;;;;;6.35;1.77;;;;;;;;;;5096475;28;20471;-69
2022/04/10 10:05:22;;;;;;;7.80;2.00;;;;;;;;;;5088391;28;20689;-68
2022/04/10 10:07:49;;;;;;;3.17;1.48;;;;;;;;;;5099787;28;20104;-70
2022/04/10 10:10:17;;;;;;;6.82;3.00;;;;;;;;;;5087067;28;20023;-68
2022/04/10 10:12:43;;;;;;;6.40;2.67;;;;;;;;;;5092656;28;20063;-69
2022/04/10 10:15:10;;;;;;;6.57;1.83;;;;;;;;;;5094951;28;20066;-69
2022/04/10 10:17:36;;;;;;;7.35;1.70;;;;;;;;;;5086717;28;20051;-69
2022/04/10 10:20:03;;;;;;;5.22;1.90;;;;;;;;;;5092091;28;20035;-69
2022/04/10 10:22:29;;;;;;;5.60;2.20;;;;;;;;;;5089685;28;20645;-69
2022/04/10 10:25:00;;;;;;;7.18;2.05;;;;;;;;;;5084317;28;20815;-69
2022/04/10 10:27:32;;;;;;;5.00;1.90;;;;;;;;;;5087077;28;20952;-70
2022/04/10 10:30:18;;;;;;;6.97;1.92;;;;;;;;;;5088723;28;20067;-73
2022/04/10 10:32:49;;;;;;;11.70;2.28;;;;;;;;;;5091219;28;20028;-72
2022/04/10 10:35:32;;;;;;;5.10;1.67;;;;;;;;;;5090063;28;20031;-73
2022/04/10 10:38:00;;;;;;;7.43;1.83;;;;;;;;;;5097771;28;20059;-72
2022/04/10 10:40:26;;;;;;;5.43;1.42;;;;;;;;;;5088678;28;20042;-73
2022/04/10 10:42:56;;;;;;;6.43;1.30;;;;;;;;;;5086334;28;20023;-73
2022/04/10 10:45:32;;;;;;;4.50;1.02;;;;;;;;;;5087542;28;20035;-72
2022/04/10 10:48:17;;;;;;;6.68;1.42;;;;;;;;;;5092724;28;20039;-70
2022/04/10 10:50:43;;;;;;;3.30;1.30;;;;;;;;;;5092573;28;20225;-69
2022/04/10 10:53:09;;;;;;;4.38;1.27;;;;;;;;;;5096394;28;20691;-69
2022/04/10 10:55:45;;;;;;;6.20;1.02;;;;;;;;;;5095327;28;20028;-69
2022/04/10 10:58:14;;;;;;;6.25;1.40;;;;;;;;;;5088162;28;20032;-68
2022/04/10 11:00:40;;;;;;;4.53;1.58;;;;;;;;;;5088988;28;20027;-68
2022/04/10 11:03:09;;;;;;;4.82;1.90;;;;;;;;;;5093312;28;20024;-68
2022/04/10 11:05:36;;;;;;;4.78;1.55;;;;;;;;;;5091424;28;20114;-70
2022/04/10 11:08:02;;;;;;;5.82;1.75;;;;;;;;;;5086265;28;20434;-69
2022/04/10 11:10:29;;;;;;;6.28;1.35;;;;;;;;;;5088547;28;20027;-69
2022/04/10 11:13:06;;;;;;;5.30;1.25;;;;;;;;;;5084206;28;20024;-69
2022/04/10 11:15:49;;;;;;;6.68;1.30;;;;;;;;;;5084360;28;20035;-69
2022/04/10 11:18:25;;;;;;;6.35;1.73;;;;;;;;;;5088969;28;20051;-69
2022/04/10 11:20:54;;;;;;;6.60;1.92;;;;;;;;;;5096239;28;20028;-69
2022/04/10 11:23:20;;;;;;;6.65;1.98;;;;;;;;;;5090081;28;20076;-70
2022/04/10 11:25:52;;;;;;;5.90;1.83;;;;;;;;;;5083828;28;20035;-69
2022/04/10 11:28:18;;;;;;;5.38;1.52;;;;;;;;;;5086671;28;20043;-69
2022/04/10 11:30:48;;;;;;;3.55;1.40;;;;;;;;;;5088713;28;20383;-70
2022/04/10 11:33:14;;;;;;;4.25;1.70;;;;;;;;;;5089386;28;20031;-69
2022/04/10 11:35:41;;;;;;;6.15;1.85;;;;;;;;;;5082520;28;20036;-70
2022/04/10 11:38:11;;;;;;;6.50;1.63;;;;;;;;;;5084451;28;20024;-70
2022/04/10 11:40:39;;;;;;;2.70;1.42;;;;;;;;;;5087329;28;20168;-70
2022/04/10 11:43:07;;;;;;;5.68;1.80;;;;;;;;;;5085922;28;20564;-70
2022/04/10 11:45:33;;;;;;;3.80;1.35;;;;;;;;;;5097515;28;20043;-70
2022/04/10 11:48:00;;;;;;;5.22;1.50;;;;;;;;;;5090463;28;20024;-70
2022/04/10 11:50:26;;;;;;;5.50;1.48;;;;;;;;;;5088584;28;20028;-70
2022/04/10 11:53:03;;;;;;;8.68;2.00;;;;;;;;;;5087510;28;20031;-70
2022/04/10 11:55:35;;;;;;;6.57;1.30;;;;;;;;;;5095569;28;20072;-70
2022/04/10 11:58:01;;;;;;;7.30;2.47;;;;;;;;;;5091843;28;20438;-70
2022/04/10 12:00:27;;;;;;;7.57;3.53;;;;;;;;;;5089710;28;20527;-70
2022/04/10 12:02:54;;;;;;;3.35;1.58;;;;;;;;;;5084528;28;20035;-70
2022/04/10 12:05:21;;;;;;;4.90;1.92;;;;;;;;;;5084275;28;20031;-70
2022/04/10 12:07:47;;;;;;;7.00;2.20;;;;;;;;;;5085270;28;20039;-70
2022/04/10 12:10:19;;;;;;;6.80;2.67;;;;;;;;;;5091361;28;20714;-70
2022/04/10 12:12:46;;;;;;;7.15;3.75;;;;;;;;;;5096731;28;20051;-70
2022/04/10 12:15:19;;;;;;;2.60;1.70;;;;;;;;;;5082698;28;20024;-70
2022/04/10 12:17:45;;;;;;;;;;;;;;;;;;5093717;28;20512;-70
2022/04/10 12:20:11;;;;;;;6.88;1.80;;;;;;;;;;5095297;28;20410;-70
2022/04/10 12:22:37;;;;;;;3.38;1.10;;;;;;;;;;5083864;28;20055;-69
2022/04/10 12:25:03;;;;;;;5.32;1.42;;;;;;;;;;5083723;28;20122;-69
2022/04/10 12:27:30;;;;;;;3.42;1.08;;;;;;;;;;5088196;28;20020;-71
2022/04/10 12:29:56;;;;;;;4.53;2.58;;;;;;;;;;5082566;28;20562;-70
2022/04/10 12:32:23;;;;;;;5.93;2.97;;;;;;;;;;5087431;28;20035;-69
2022/04/10 12:34:49;;;;;;;4.72;3.00;;;;;;;;;;5083092;28;20040;-70
2022/04/10 12:37:18;;;;;;;3.53;1.20;;;;;;;;;;5082837;28;20028;-68
2022/04/10 12:39:47;;;;;;;2.35;1.20;;;;;;;;;;5081471;28;20028;-68
2022/04/10 12:42:19;;;;;;;2.88;1.42;;;;;;;;;;5101205;28;20032;-69
2022/04/10 12:44:54;;;;;;;4.85;1.92;;;;;;;;;;5087759;28;20085;-70
2022/04/10 12:47:38;;;;;;;8.07;2.75;;;;;;;;;;5091913;28;20031;-68
2022/04/10 12:50:06;;;;;;;5.90;2.80;;;;;;;;;;5097585;28;20027;-69
2022/04/10 12:52:32;;;;;;;4.13;2.13;;;;;;;;;;5095946;28;20035;-70
2022/04/10 12:54:58;;;;;;;6.97;2.15;;;;;;;;;;5090633;28;20628;-69
2022/04/10 12:57:28;;;;;;;5.47;2.55;;;;;;;;;;5099769;28;20036;-69
2022/04/10 12:59:54;;;;;;;5.57;2.70;;;;;;;;;;5089212;28;20795;-69
2022/04/10 13:02:21;;;;;;;7.28;2.47;;;;;;;;;;5097506;28;20015;-69
2022/04/10 13:04:56;;;;;;;5.68;2.90;;;;;;;;;;5091978;28;20039;-68
2022/04/10 13:07:23;;;;;;;5.13;2.20;;;;;;;;;;5090708;28;20495;-69
2022/04/10 13:10:06;;;;;;;4.18;1.50;;;;;;;;;;5096621;28;20028;-69
2022/04/10 13:12:33;;;;;;;4.30;1.23;;;;;;;;;;5095834;28;20296;-69
2022/04/10 13:14:59;;;;;;;3.80;1.50;;;;;;;;;;5087235;28;20031;-68
2022/04/10 13:17:32;;;;;;;2.22;1.40;;;;;;;;;;5094275;28;20646;-70
2022/04/10 13:20:09;;;;;;;4.88;1.48;;;;;;;;;;5091535;28;20559;-69
2022/04/10 13:22:36;;;;;;;2.92;1.60;;;;;;;;;;5093463;28;20495;-69
2022/04/10 13:25:02;;;;;;;3.63;1.60;;;;;;;;;;5090073;28;20991;-69
2022/04/10 13:27:28;;;;;;;3.42;1.80;;;;;;;;;;5090325;28;20028;-69
2022/04/10 13:29:55;;;;;;;3.53;1.50;;;;;;;;;;5089129;28;20054;-70
2022/04/10 13:32:21;;;;;;;2.70;1.35;;;;;;;;;;5090658;28;20584;-70
2022/04/10 13:34:47;;;;;;;3.88;1.70;;;;;;;;;;5088896;28;20031;-69
2022/04/10 13:37:13;;;;;;;2.95;1.42;;;;;;;;;;5093019;28;20239;-70
2022/04/10 13:39:39;;;;;;;3.13;1.85;;;;;;;;;;5087546;28;20024;-70
2022/04/10 13:42:06;;;;;;;5.03;1.90;;;;;;;;;;5098704;28;20918;-70
2022/04/10 13:44:32;;;;;;;3.78;2.00;;;;;;;;;;5091106;28;20035;-69
2022/04/10 13:46:58;;;;;;;3.00;1.50;;;;;;;;;;5094717;28;20097;-69
2022/04/10 13:49:24;;;;;;;4.47;2.28;;;;;;;;;;5094120;28;20390;-71
2022/04/10 13:51:51;;;;;;;3.72;2.00;;;;;;;;;;5094483;28;20475;-70
2022/04/10 13:54:17;;;;;;;6.68;2.63;;;;;;;;;;5088120;28;20035;-70
2022/04/10 13:56:43;;;;;;;6.40;2.70;;;;;;;;;;5086513;28;20024;-71
2022/04/10 13:59:09;;;;;;;5.55;2.25;;;;;;;;;;5092528;28;20040;-70
2022/04/10 14:01:35;;;;;;;3.67;2.55;;;;;;;;;;5090243;28;20028;-70
2022/04/10 14:04:02;;;;;;;4.93;2.15;;;;;;;;;;5092712;28;20043;-71
2022/04/10 14:06:28;;;;;;;6.95;2.13;;;;;;;;;;5091090;28;20665;-69
2022/04/10 14:08:58;;;;;;;5.25;2.05;;;;;;;;;;5088970;28;20024;-70
2022/04/10 14:11:24;;;;;;;4.00;2.30;;;;;;;;;;5092677;28;20502;-71
2022/04/10 14:13:50;;;;;;;7.15;2.78;;;;;;;;;;5087897;28;20046;-71
2022/04/10 14:16:16;;;;;;;6.28;2.50;;;;;;;;;;5089848;28;20030;-70
2022/04/10 14:18:42;;;;;;;4.40;2.10;;;;;;;;;;5097899;28;20036;-69
2022/04/10 14:21:08;;;;;;;3.83;1.90;;;;;;;;;;5104779;28;20027;-70
2022/04/10 14:23:35;;;;;;;9.55;2.30;;;;;;;;;;5088304;28;20050;-70
2022/04/10 14:26:01;;;;;;;6.25;2.45;;;;;;;;;;5083642;28;20817;-70
2022/04/10 14:28:27;;;;;;;4.60;2.00;;;;;;;;;;5094896;28;20036;-70
2022/04/10 14:30:53;;;;;;;5.22;2.10;;;;;;;;;;5088588;28;20031;-73
2022/04/10 14:33:19;;;;;;;3.72;1.88;;;;;;;;;;5093702;28;20181;-72
2022/04/10 14:35:45;;;;;;;3.58;1.90;;;;;;;;;;5092190;28;20177;-71
2022/04/10 14:38:13;;;;;;;6.18;2.20;;;;;;;;;;5094709;28;20138;-73
2022/04/10 14:40:40;;;;;;;3.70;1.90;;;;;;;;;;5094199;28;20099;-73
2022/04/10 14:43:06;;;;;;;4.10;1.70;;;;;;;;;;5098226;28;20027;-72
2022/04/10 14:45:32;;;;;;;2.35;1.50;;;;;;;;;;5089752;28;20028;-74